sensor_id;sensor_type;location;lat;lon;timestamp;pressure;altitude;pressure_sealevel;temperature;humidity
7309;BME280;3695;53.330;9.876;2023-05-29T00:02:07;102779.44;;;11.73;100.00
7309;BME280;3695;53.330;9.876;2023-05-29T00:04:34;102794.09;;;12.03;100.00
7309;BME280;3695;53.330;9.876;2023-05-29T00:07:02;102785.63;;;11.59;100.00
7309;BME280;3695;53.330;9.876;2023-05-29T00:09:29;102792.50;;;11.86;100.00
7309;BME280;3695;53.330;9.876;2023-05-29T00:11:55;102788.25;;;11.75;100.00
7309;BME280;3695;53.330;9.876;2023-05-29T00:14:23;102798.13;;;11.84;100.00
7309;BME280;3695;53.330;9.876;2023-05-29T00:16:51;102792.84;;;11.75;100.00
7309;BME280;3695;53.330;9.876;2023-05-29T00:19:17;102797.06;;;11.77;100.00
7309;BME280;3695;53.330;9.876;2023-05-29T00:21:44;102804.88;;;11.88;100.00
7309;BME280;3695;53.330;9.876;2023-05-29T00:24:13;102806.47;;;11.66;100.00
7309;BME280;3695;53.330;9.876;2023-05-29T00:26:39;102810.34;;;11.72;100.00
7309;BME280;3695;53.330;9.876;2023-05-29T00:29:06;102811.41;;;11.63;100.00
7309;BME280;3695;53.330;9.876;2023-05-29T00:31:33;102809.31;;;11.81;100.00
7309;BME280;3695;53.330;9.876;2023-05-29T00:34:00;102815.78;;;11.72;100.00
7309;BME280;3695;53.330;9.876;2023-05-29T00:36:27;102817.47;;;11.81;100.00
7309;BME280;3695;53.330;9.876;2023-05-29T00:38:54;102815.16;;;11.62;100.00
7309;BME280;3695;53.330;9.876;2023-05-29T00:41:20;102817.34;;;11.66;100.00
7309;BME280;3695;53.330;9.876;2023-05-29T00:43:47;102822.56;;;11.76;100.00
7309;BME280;3695;53.330;9.876;2023-05-29T00:46:14;102822.84;;;11.50;100.00
7309;BME280;3695;53.330;9.876;2023-05-29T00:48:43;102828.75;;;11.54;100.00
7309;BME280;3695;53.330;9.876;2023-05-29T00:51:10;102831.75;;;11.83;100.00
7309;BME280;3695;53.330;9.876;2023-05-29T00:53:38;102828.72;;;11.62;100.00
7309;BME280;3695;53.330;9.876;2023-05-29T00:56:06;102828.06;;;11.60;100.00
7309;BME280;3695;53.330;9.876;2023-05-29T00:58:33;102842.03;;;11.41;100.00
7309;BME280;3695;53.330;9.876;2023-05-29T01:01:00;102836.78;;;11.39;100.00
7309;BME280;3695;53.330;9.876;2023-05-29T01:03:26;102841.03;;;11.25;100.00
7309;BME280;3695;53.330;9.876;2023-05-29T01:05:54;102845.44;;;11.43;100.00
7309;BME280;3695;53.330;9.876;2023-05-29T01:08:23;102852.44;;;11.13;100.00
7309;BME280;3695;53.330;9.876;2023-05-29T01:10:51;102846.81;;;11.22;100.00
7309;BME280;3695;53.330;9.876;2023-05-29T01:13:23;102844.94;;;11.39;100.00
7309;BME280;3695;53.330;9.876;2023-05-29T01:15:58;102847.78;;;11.54;100.00
7309;BME280;3695;53.330;9.876;2023-05-29T01:18:34;102842.03;;;11.41;100.00
7309;BME280;3695;53.330;9.876;2023-05-29T01:21:12;102845.09;;;11.38;100.00
7309;BME280;3695;53.330;9.876;2023-05-29T01:23:53;102850.41;;;11.07;100.00
7309;BME280;3695;53.330;9.876;2023-05-29T01:26:45;102852.94;;;11.08;100.00
7309;BME280;3695;53.330;9.876;2023-05-29T01:29:14;102857.16;;;11.19;100.00
7309;BME280;3695;53.330;9.876;2023-05-29T01:31:42;102858.00;;;11.35;100.00
7309;BME280;3695;53.330;9.876;2023-05-29T01:34:09;102856.44;;;11.49;100.00
7309;BME280;3695;53.330;9.876;2023-05-29T01:36:35;102863.13;;;11.06;100.00
7309;BME280;3695;53.330;9.876;2023-05-29T01:39:02;102862.09;;;11.15;100.00
7309;BME280;3695;53.330;9.876;2023-05-29T01:41:31;102854.28;;;10.71;100.00
7309;BME280;3695;53.330;9.876;2023-05-29T01:44:02;102863.78;;;11.16;100.00
7309;BME280;3695;53.330;9.876;2023-05-29T01:46:29;102864.13;;;11.05;100.00
7309;BME280;3695;53.330;9.876;2023-05-29T01:48:55;102862.41;;;11.20;100.00
7309;BME280;3695;53.330;9.876;2023-05-29T01:51:22;102857.38;;;10.93;100.00
7309;BME280;3695;53.330;9.876;2023-05-29T01:53:49;102855.66;;;10.84;100.00
7309;BME280;3695;53.330;9.876;2023-05-29T01:56:15;102856.00;;;10.89;100.00
7309;BME280;3695;53.330;9.876;2023-05-29T01:58:42;102860.41;;;10.98;100.00
7309;BME280;3695;53.330;9.876;2023-05-29T02:01:10;102860.75;;;11.11;100.00
7309;BME280;3695;53.330;9.876;2023-05-29T02:03:37;102851.56;;;10.80;100.00
7309;BME280;3695;53.330;9.876;2023-05-29T02:06:04;102853.09;;;10.74;100.00
7309;BME280;3695;53.330;9.876;2023-05-29T02:08:31;102860.56;;;10.72;100.00
7309;BME280;3695;53.330;9.876;2023-05-29T02:10:58;102868.53;;;10.57;100.00
7309;BME280;3695;53.330;9.876;2023-05-29T02:13:25;102860.38;;;10.49;100.00
7309;BME280;3695;53.330;9.876;2023-05-29T02:15:51;102869.53;;;10.72;100.00
7309;BME280;3695;53.330;9.876;2023-05-29T02:18:19;102866.31;;;10.53;100.00
7309;BME280;3695;53.330;9.876;2023-05-29T02:20:46;102871.34;;;10.39;100.00
7309;BME280;3695;53.330;9.876;2023-05-29T02:23:12;102875.28;;;10.45;100.00
7309;BME280;3695;53.330;9.876;2023-05-29T02:25:40;102871.69;;;10.36;100.00
7309;BME280;3695;53.330;9.876;2023-05-29T02:28:07;102871.84;;;10.35;100.00
7309;BME280;3695;53.330;9.876;2023-05-29T02:30:34;102868.28;;;10.34;100.00
7309;BME280;3695;53.330;9.876;2023-05-29T02:33:01;102865.50;;;10.10;100.00
7309;BME280;3695;53.330;9.876;2023-05-29T02:35:28;102867.66;;;9.98;100.00
7309;BME280;3695;53.330;9.876;2023-05-29T02:37:55;102871.72;;;9.94;100.00
7309;BME280;3695;53.330;9.876;2023-05-29T02:40:22;102875.81;;;10.06;100.00
7309;BME280;3695;53.330;9.876;2023-05-29T02:42:49;102874.59;;;9.67;100.00
7309;BME280;3695;53.330;9.876;2023-05-29T02:45:16;102871.22;;;9.65;100.00
7309;BME280;3695;53.330;9.876;2023-05-29T02:47:43;102865.97;;;9.63;100.00
7309;BME280;3695;53.330;9.876;2023-05-29T02:50:10;102868.56;;;9.81;100.00
7309;BME280;3695;53.330;9.876;2023-05-29T02:52:38;102869.16;;;9.59;100.00
7309;BME280;3695;53.330;9.876;2023-05-29T02:55:05;102869.91;;;9.77;100.00
7309;BME280;3695;53.330;9.876;2023-05-29T02:57:32;102863.78;;;9.67;100.00
7309;BME280;3695;53.330;9.876;2023-05-29T02:59:58;102867.53;;;9.74;100.00
7309;BME280;3695;53.330;9.876;2023-05-29T03:02:25;102873.47;;;9.77;100.00
7309;BME280;3695;53.330;9.876;2023-05-29T03:04:52;102862.84;;;9.50;100.00
7309;BME280;3695;53.330;9.876;2023-05-29T03:07:19;102868.09;;;9.52;100.00
7309;BME280;3695;53.330;9.876;2023-05-29T03:09:47;102866.16;;;9.44;100.00
7309;BME280;3695;53.330;9.876;2023-05-29T03:12:13;102868.41;;;9.49;100.00
7309;BME280;3695;53.330;9.876;2023-05-29T03:14:39;102866.72;;;9.48;100.00
7309;BME280;3695;53.330;9.876;2023-05-29T03:17:06;102875.78;;;9.38;100.00
7309;BME280;3695;53.330;9.876;2023-05-29T03:19:33;102870.72;;;9.69;100.00
7309;BME280;3695;53.330;9.876;2023-05-29T03:21:59;102878.56;;;9.46;100.00
7309;BME280;3695;53.330;9.876;2023-05-29T03:24:26;102876.72;;;9.29;100.00
7309;BME280;3695;53.330;9.876;2023-05-29T03:26:54;102881.47;;;9.27;100.00
7309;BME280;3695;53.330;9.876;2023-05-29T03:29:21;102888.31;;;9.39;100.00
7309;BME280;3695;53.330;9.876;2023-05-29T03:31:47;102879.69;;;9.44;100.00
7309;BME280;3695;53.330;9.876;2023-05-29T03:34:14;102885.66;;;9.22;100.00
7309;BME280;3695;53.330;9.876;2023-05-29T03:36:40;102883.03;;;9.38;100.00
7309;BME280;3695;53.330;9.876;2023-05-29T03:39:07;102876.00;;;9.19;100.00
7309;BME280;3695;53.330;9.876;2023-05-29T03:41:34;102879.25;;;9.49;100.00
7309;BME280;3695;53.330;9.876;2023-05-29T03:44:02;102879.50;;;9.11;100.00
7309;BME280;3695;53.330;9.876;2023-05-29T03:46:29;102891.75;;;9.24;100.00
7309;BME280;3695;53.330;9.876;2023-05-29T03:48:56;102894.47;;;9.24;100.00
7309;BME280;3695;53.330;9.876;2023-05-29T03:51:22;102894.34;;;9.33;100.00
7309;BME280;3695;53.330;9.876;2023-05-29T03:53:49;102898.28;;;9.13;100.00
7309;BME280;3695;53.330;9.876;2023-05-29T03:56:15;102906.44;;;9.21;100.00
7309;BME280;3695;53.330;9.876;2023-05-29T03:58:41;102917.38;;;9.37;100.00
7309;BME280;3695;53.330;9.876;2023-05-29T04:01:10;102913.78;;;9.29;100.00
7309;BME280;3695;53.330;9.876;2023-05-29T04:03:37;102918.22;;;9.12;100.00
7309;BME280;3695;53.330;9.876;2023-05-29T04:06:04;102918.75;;;9.15;100.00
7309;BME280;3695;53.330;9.876;2023-05-29T04:08:31;102925.94;;;9.07;100.00
7309;BME280;3695;53.330;9.876;2023-05-29T04:10:58;102919.69;;;9.50;100.00
7309;BME280;3695;53.330;9.876;2023-05-29T04:13:24;102920.66;;;9.23;100.00
7309;BME280;3695;53.330;9.876;2023-05-29T04:15:51;102931.66;;;9.22;100.00
7309;BME280;3695;53.330;9.876;2023-05-29T04:18:20;102939.66;;;9.31;100.00
7309;BME280;3695;53.330;9.876;2023-05-29T04:20:46;102942.22;;;9.33;100.00
7309;BME280;3695;53.330;9.876;2023-05-29T04:23:13;102946.06;;;9.48;100.00
7309;BME280;3695;53.330;9.876;2023-05-29T04:25:39;102949.22;;;9.00;100.00
7309;BME280;3695;53.330;9.876;2023-05-29T04:28:06;102961.41;;;9.22;100.00
7309;BME280;3695;53.330;9.876;2023-05-29T04:30:32;102948.94;;;9.46;100.00
7309;BME280;3695;53.330;9.876;2023-05-29T04:32:59;102952.44;;;9.21;100.00
7309;BME280;3695;53.330;9.876;2023-05-29T04:35:26;102949.47;;;9.50;100.00
7309;BME280;3695;53.330;9.876;2023-05-29T04:37:54;102943.53;;;9.46;100.00
7309;BME280;3695;53.330;9.876;2023-05-29T04:40:22;102947.22;;;9.45;100.00
7309;BME280;3695;53.330;9.876;2023-05-29T04:42:48;102959.44;;;9.50;100.00
7309;BME280;3695;53.330;9.876;2023-05-29T04:45:15;102954.63;;;9.43;100.00
7309;BME280;3695;53.330;9.876;2023-05-29T04:47:45;102960.69;;;9.37;100.00
7309;BME280;3695;53.330;9.876;2023-05-29T04:50:11;102957.81;;;9.57;100.00
7309;BME280;3695;53.330;9.876;2023-05-29T04:52:39;102961.78;;;9.70;100.00
7309;BME280;3695;53.330;9.876;2023-05-29T04:55:07;102959.44;;;10.01;100.00
7309;BME280;3695;53.330;9.876;2023-05-29T04:57:35;102962.41;;;9.90;100.00
7309;BME280;3695;53.330;9.876;2023-05-29T05:00:02;102972.19;;;9.83;100.00
7309;BME280;3695;53.330;9.876;2023-05-29T05:02:30;102968.91;;;9.97;100.00
7309;BME280;3695;53.330;9.876;2023-05-29T05:04:57;102964.75;;;9.85;100.00
7309;BME280;3695;53.330;9.876;2023-05-29T05:07:23;102964.22;;;10.07;100.00
7309;BME280;3695;53.330;9.876;2023-05-29T05:09:51;102958.31;;;9.86;100.00
7309;BME280;3695;53.330;9.876;2023-05-29T05:12:18;102964.44;;;9.88;100.00
7309;BME280;3695;53.330;9.876;2023-05-29T05:14:44;102958.59;;;10.01;100.00
7309;BME280;3695;53.330;9.876;2023-05-29T05:17:11;102965.25;;;10.15;100.00
7309;BME280;3695;53.330;9.876;2023-05-29T05:19:37;102963.00;;;10.02;100.00
7309;BME280;3695;53.330;9.876;2023-05-29T05:22:04;102973.84;;;10.36;100.00
7309;BME280;3695;53.330;9.876;2023-05-29T05:24:30;102971.09;;;10.28;100.00
7309;BME280;3695;53.330;9.876;2023-05-29T05:26:58;102972.00;;;10.10;100.00
7309;BME280;3695;53.330;9.876;2023-05-29T05:29:25;102980.34;;;9.91;100.00
7309;BME280;3695;53.330;9.876;2023-05-29T05:31:51;102981.53;;;10.15;100.00
7309;BME280;3695;53.330;9.876;2023-05-29T05:34:18;102983.22;;;10.16;100.00
7309;BME280;3695;53.330;9.876;2023-05-29T05:36:45;102992.28;;;10.32;100.00
7309;BME280;3695;53.330;9.876;2023-05-29T05:39:11;102988.94;;;10.38;100.00
7309;BME280;3695;53.330;9.876;2023-05-29T05:41:38;102986.16;;;10.22;100.00
7309;BME280;3695;53.330;9.876;2023-05-29T05:44:06;102974.31;;;10.23;100.00
7309;BME280;3695;53.330;9.876;2023-05-29T05:46:33;102992.72;;;10.46;100.00
7309;BME280;3695;53.330;9.876;2023-05-29T05:48:59;102984.97;;;10.25;100.00
7309;BME280;3695;53.330;9.876;2023-05-29T05:51:26;102990.75;;;10.72;100.00
7309;BME280;3695;53.330;9.876;2023-05-29T05:53:53;102980.75;;;10.72;100.00
7309;BME280;3695;53.330;9.876;2023-05-29T05:56:20;102990.00;;;11.04;100.00
7309;BME280;3695;53.330;9.876;2023-05-29T05:58:46;102975.28;;;10.56;100.00
7309;BME280;3695;53.330;9.876;2023-05-29T06:01:14;102969.28;;;10.36;100.00
7309;BME280;3695;53.330;9.876;2023-05-29T06:03:41;102977.84;;;10.66;100.00
7309;BME280;3695;53.330;9.876;2023-05-29T06:06:07;102978.91;;;10.81;100.00
7309;BME280;3695;53.330;9.876;2023-05-29T06:08:35;102981.38;;;10.50;100.00
7309;BME280;3695;53.330;9.876;2023-05-29T06:11:03;102981.09;;;10.78;100.00
7309;BME280;3695;53.330;9.876;2023-05-29T06:13:29;102985.50;;;10.79;100.00
7309;BME280;3695;53.330;9.876;2023-05-29T06:15:55;102990.31;;;10.93;100.00
7309;BME280;3695;53.330;9.876;2023-05-29T06:18:23;102987.78;;;11.08;100.00
7309;BME280;3695;53.330;9.876;2023-05-29T06:20:51;102981.50;;;11.15;100.00
7309;BME280;3695;53.330;9.876;2023-05-29T06:23:17;102967.38;;;10.79;100.00
7309;BME280;3695;53.330;9.876;2023-05-29T06:25:44;102967.38;;;10.79;100.00
7309;BME280;3695;53.330;9.876;2023-05-29T06:28:10;102979.47;;;11.09;100.00
7309;BME280;3695;53.330;9.876;2023-05-29T06:30:38;102968.94;;;10.98;100.00
7309;BME280;3695;53.330;9.876;2023-05-29T06:33:05;102963.88;;;10.95;100.00
7309;BME280;3695;53.330;9.876;2023-05-29T06:35:33;102972.34;;;11.24;100.00
7309;BME280;3695;53.330;9.876;2023-05-29T06:37:59;102966.59;;;11.11;100.00
7309;BME280;3695;53.330;9.876;2023-05-29T06:40:26;102956.75;;;11.26;100.00
7309;BME280;3695;53.330;9.876;2023-05-29T06:42:52;102967.44;;;11.52;100.00
7309;BME280;3695;53.330;9.876;2023-05-29T06:45:18;102953.84;;;11.60;100.00
7309;BME280;3695;53.330;9.876;2023-05-29T06:47:45;102950.59;;;11.65;100.00
7309;BME280;3695;53.330;9.876;2023-05-29T06:50:12;102936.38;;;11.30;100.00
7309;BME280;3695;53.330;9.876;2023-05-29T06:52:39;102954.69;;;11.61;100.00
7309;BME280;3695;53.330;9.876;2023-05-29T06:55:06;102950.59;;;11.65;100.00
7309;BME280;3695;53.330;9.876;2023-05-29T06:57:33;102944.53;;;11.55;100.00
7309;BME280;3695;53.330;9.876;2023-05-29T07:00:00;102949.03;;;12.03;100.00
7309;BME280;3695;53.330;9.876;2023-05-29T07:02:26;102957.19;;;12.42;100.00
7309;BME280;3695;53.330;9.876;2023-05-29T07:04:52;102943.16;;;12.31;100.00
7309;BME280;3695;53.330;9.876;2023-05-29T07:07:19;102947.25;;;12.18;100.00
7309;BME280;3695;53.330;9.876;2023-05-29T07:09:46;102937.88;;;11.90;100.00
7309;BME280;3695;53.330;9.876;2023-05-29T07:12:13;102943.81;;;11.85;100.00
7309;BME280;3695;53.330;9.876;2023-05-29T07:14:39;102941.41;;;11.98;100.00
7309;BME280;3695;53.330;9.876;2023-05-29T07:17:06;102948.19;;;12.03;100.00
7309;BME280;3695;53.330;9.876;2023-05-29T07:19:32;102949.19;;;12.02;100.00
7309;BME280;3695;53.330;9.876;2023-05-29T07:21:59;102947.34;;;12.02;100.00
7309;BME280;3695;53.330;9.876;2023-05-29T07:24:26;102941.59;;;11.89;100.00
7309;BME280;3695;53.330;9.876;2023-05-29T07:26:54;102935.44;;;12.03;100.00
7309;BME280;3695;53.330;9.876;2023-05-29T07:29:20;102927.09;;;12.05;100.00
7309;BME280;3695;53.330;9.876;2023-05-29T07:31:48;102940.75;;;12.27;100.00
7309;BME280;3695;53.330;9.876;2023-05-29T07:34:14;102929.53;;;11.75;100.00
7309;BME280;3695;53.330;9.876;2023-05-29T07:36:56;102901.94;;;11.47;100.00
7309;BME280;3695;53.330;9.876;2023-05-29T07:39:23;102935.97;;;11.74;100.00
7309;BME280;3695;53.330;9.876;2023-05-29T07:41:50;102951.63;;;11.88;100.00
7309;BME280;3695;53.330;9.876;2023-05-29T07:44:18;102942.94;;;11.77;100.00
7309;BME280;3695;53.330;9.876;2023-05-29T07:46:45;102965.09;;;12.21;100.00
7309;BME280;3695;53.330;9.876;2023-05-29T07:49:11;102962.47;;;12.44;100.00
7309;BME280;3695;53.330;9.876;2023-05-29T07:51:38;102953.31;;;12.37;100.00
7309;BME280;3695;53.330;9.876;2023-05-29T07:54:04;102953.88;;;12.24;100.00
7309;BME280;3695;53.330;9.876;2023-05-29T07:56:31;102946.47;;;12.02;100.00
7309;BME280;3695;53.330;9.876;2023-05-29T07:58:58;102961.75;;;12.11;100.00
7309;BME280;3695;53.330;9.876;2023-05-29T08:01:26;102959.03;;;12.11;100.00
7309;BME280;3695;53.330;9.876;2023-05-29T08:03:53;102976.56;;;12.47;100.00
7309;BME280;3695;53.330;9.876;2023-05-29T08:06:20;102953.88;;;12.24;100.00
7309;BME280;3695;53.330;9.876;2023-05-29T08:08:47;102973.34;;;12.44;100.00
7309;BME280;3695;53.330;9.876;2023-05-29T08:11:13;102982.03;;;13.01;100.00
7309;BME280;3695;53.330;9.876;2023-05-29T08:13:40;102953.06;;;12.54;100.00
7309;BME280;3695;53.330;9.876;2023-05-29T08:16:07;102971.28;;;12.77;100.00
7309;BME280;3695;53.330;9.876;2023-05-29T08:18:35;102964.84;;;13.01;100.00
7309;BME280;3695;53.330;9.876;2023-05-29T08:21:02;102948.56;;;12.92;100.00
7309;BME280;3695;53.330;9.876;2023-05-29T08:23:28;102946.84;;;13.14;100.00
7309;BME280;3695;53.330;9.876;2023-05-29T08:25:56;102932.47;;;12.83;100.00
7309;BME280;3695;53.330;9.876;2023-05-29T08:28:23;102958.09;;;13.19;100.00
7309;BME280;3695;53.330;9.876;2023-05-29T08:30:51;102941.72;;;12.97;100.00
7309;BME280;3695;53.330;9.876;2023-05-29T08:33:17;102950.75;;;12.97;100.00
7309;BME280;3695;53.330;9.876;2023-05-29T08:35:45;102947.28;;;13.03;100.00
7309;BME280;3695;53.330;9.876;2023-05-29T08:38:12;102934.53;;;12.81;100.00
7309;BME280;3695;53.330;9.876;2023-05-29T08:40:39;102956.38;;;13.18;100.00
7309;BME280;3695;53.330;9.876;2023-05-29T08:43:10;102946.09;;;12.83;100.00
7309;BME280;3695;53.330;9.876;2023-05-29T08:45:42;102941.72;;;12.97;100.00
7309;BME280;3695;53.330;9.876;2023-05-29T08:48:09;102973.34;;;13.66;100.00
7309;BME280;3695;53.330;9.876;2023-05-29T08:50:37;102943.78;;;13.40;100.00
7309;BME280;3695;53.330;9.876;2023-05-29T08:53:09;102947.63;;;13.31;100.00
7309;BME280;3695;53.330;9.876;2023-05-29T08:55:36;102942.97;;;13.17;100.00
7309;BME280;3695;53.330;9.876;2023-05-29T08:58:03;102948.59;;;13.53;100.00
7309;BME280;3695;53.330;9.876;2023-05-29T09:00:30;102941.50;;;13.81;100.00
7309;BME280;3695;53.330;9.876;2023-05-29T09:02:57;102953.53;;;14.02;100.00
7309;BME280;3695;53.330;9.876;2023-05-29T09:05:24;102947.50;;;14.51;100.00
7309;BME280;3695;53.330;9.876;2023-05-29T09:07:52;102924.94;;;14.12;100.00
7309;BME280;3695;53.330;9.876;2023-05-29T09:10:20;102903.41;;;13.59;100.00
7309;BME280;3695;53.330;9.876;2023-05-29T09:12:47;102941.50;;;14.11;100.00
7309;BME280;3695;53.330;9.876;2023-05-29T09:15:20;102937.94;;;14.25;100.00
7309;BME280;3695;53.330;9.876;2023-05-29T09:17:49;102919.81;;;13.73;100.00
7309;BME280;3695;53.330;9.876;2023-05-29T09:20:17;102916.78;;;13.98;100.00
7309;BME280;3695;53.330;9.876;2023-05-29T09:22:52;102918.91;;;14.17;100.00
7309;BME280;3695;53.330;9.876;2023-05-29T09:25:22;102926.72;;;14.35;100.00
7309;BME280;3695;53.330;9.876;2023-05-29T09:27:51;102926.84;;;14.63;100.00
7309;BME280;3695;53.330;9.876;2023-05-29T09:30:31;102903.13;;;14.12;100.00
7309;BME280;3695;53.330;9.876;2023-05-29T09:32:59;102931.97;;;14.36;100.00
7309;BME280;3695;53.330;9.876;2023-05-29T09:35:26;102917.50;;;14.36;100.00
7309;BME280;3695;53.330;9.876;2023-05-29T09:37:52;102932.59;;;14.68;100.00
7309;BME280;3695;53.330;9.876;2023-05-29T09:40:18;102923.38;;;14.69;100.00
7309;BME280;3695;53.330;9.876;2023-05-29T09:42:46;102925.97;;;14.77;100.00
7309;BME280;3695;53.330;9.876;2023-05-29T09:45:16;102937.50;;;15.15;100.00
7309;BME280;3695;53.330;9.876;2023-05-29T09:47:43;102925.97;;;14.98;100.00
7309;BME280;3695;53.330;9.876;2023-05-29T09:50:18;102936.38;;;15.31;100.00
7309;BME280;3695;53.330;9.876;2023-05-29T09:52:45;102897.66;;;14.78;100.00
7309;BME280;3695;53.330;9.876;2023-05-29T09:55:13;102915.84;;;15.14;100.00
7309;BME280;3695;53.330;9.876;2023-05-29T09:57:44;102904.06;;;15.41;100.00
7309;BME280;3695;53.330;9.876;2023-05-29T10:00:15;102898.66;;;15.48;100.00
7309;BME280;3695;53.330;9.876;2023-05-29T10:02:43;102886.31;;;15.02;100.00
7309;BME280;3695;53.330;9.876;2023-05-29T10:05:10;102890.13;;;15.08;100.00
7309;BME280;3695;53.330;9.876;2023-05-29T10:07:43;102878.06;;;15.17;100.00
7309;BME280;3695;53.330;9.876;2023-05-29T10:10:12;102882.31;;;15.26;100.00
7309;BME280;3695;53.330;9.876;2023-05-29T10:12:41;102898.59;;;15.62;100.00
7309;BME280;3695;53.330;9.876;2023-05-29T10:15:11;102889.41;;;15.49;100.00
7309;BME280;3695;53.330;9.876;2023-05-29T10:17:44;102887.34;;;15.23;100.00
7309;BME280;3695;53.330;9.876;2023-05-29T10:20:14;102872.25;;;15.27;100.00
7309;BME280;3695;53.330;9.876;2023-05-29T10:22:45;102871.25;;;15.34;100.00
7309;BME280;3695;53.330;9.876;2023-05-29T10:25:13;102867.66;;;15.34;100.00
7309;BME280;3695;53.330;9.876;2023-05-29T10:27:40;102871.28;;;15.41;100.00
7309;BME280;3695;53.330;9.876;2023-05-29T10:30:12;102882.44;;;15.67;100.00
7309;BME280;3695;53.330;9.876;2023-05-29T10:32:54;102883.38;;;15.88;100.00
7309;BME280;3695;53.330;9.876;2023-05-29T10:35:25;102881.66;;;16.21;100.00
7309;BME280;3695;53.330;9.876;2023-05-29T10:37:57;102877.03;;;15.53;100.00
7309;BME280;3695;53.330;9.876;2023-05-29T10:40:27;102873.84;;;15.70;100.00
7309;BME280;3695;53.330;9.876;2023-05-29T10:42:53;102872.16;;;15.48;100.00
7309;BME280;3695;53.330;9.876;2023-05-29T10:45:48;102875.22;;;15.32;100.00
7309;BME280;3695;53.330;9.876;2023-05-29T10:48:49;102873.13;;;15.96;100.00
7309;BME280;3695;53.330;9.876;2023-05-29T10:51:26;102879.63;;;16.43;100.00
7309;BME280;3695;53.330;9.876;2023-05-29T10:53:53;102866.00;;;16.56;100.00
7309;BME280;3695;53.330;9.876;2023-05-29T10:56:24;102875.69;;;16.04;100.00
7309;BME280;3695;53.330;9.876;2023-05-29T10:58:58;102862.41;;;15.60;100.00
7309;BME280;3695;53.330;9.876;2023-05-29T11:01:27;102868.19;;;16.20;100.00
7309;BME280;3695;53.330;9.876;2023-05-29T11:04:28;102873.69;;;16.26;100.00
7309;BME280;3695;53.330;9.876;2023-05-29T11:06:56;102866.56;;;16.38;100.00
7309;BME280;3695;53.330;9.876;2023-05-29T11:09:27;102873.75;;;16.53;100.00
7309;BME280;3695;53.330;9.876;2023-05-29T11:12:11;102858.78;;;15.88;100.00
7309;BME280;3695;53.330;9.876;2023-05-29T11:14:45;102866.94;;;16.22;100.00
7309;BME280;3695;53.330;9.876;2023-05-29T11:17:32;102865.00;;;16.90;100.00
7309;BME280;3695;53.330;9.876;2023-05-29T11:20:03;102865.44;;;16.13;100.00
7309;BME280;3695;53.330;9.876;2023-05-29T11:25:25;102867.63;;;16.51;100.00
7309;BME280;3695;53.330;9.876;2023-05-29T11:27:51;102855.47;;;16.60;100.00
7309;BME280;3695;53.330;9.876;2023-05-29T11:30:18;102853.63;;;17.20;100.00
7309;BME280;3695;53.330;9.876;2023-05-29T11:32:45;102842.22;;;17.29;100.00
7309;BME280;3695;53.330;9.876;2023-05-29T11:35:15;102841.41;;;17.22;100.00
7309;BME280;3695;53.330;9.876;2023-05-29T11:37:45;102844.78;;;17.18;100.00
7309;BME280;3695;53.330;9.876;2023-05-29T11:40:13;102858.66;;;17.43;100.00
7309;BME280;3695;53.330;9.876;2023-05-29T11:42:42;102845.53;;;17.65;100.00
7309;BME280;3695;53.330;9.876;2023-05-29T11:45:12;102849.63;;;17.09;100.00
7309;BME280;3695;53.330;9.876;2023-05-29T11:47:52;102859.53;;;17.04;100.00
7309;BME280;3695;53.330;9.876;2023-05-29T11:50:21;102853.22;;;17.16;100.00
7309;BME280;3695;53.330;9.876;2023-05-29T11:52:48;102857.19;;;17.53;100.00
7309;BME280;3695;53.330;9.876;2023-05-29T11:55:17;102851.03;;;17.65;100.00
7309;BME280;3695;53.330;9.876;2023-05-29T11:57:43;102842.53;;;17.86;100.00
7309;BME280;3695;53.330;9.876;2023-05-29T12:00:13;102836.16;;;18.05;100.00
7309;BME280;3695;53.330;9.876;2023-05-29T12:02:40;102833.41;;;18.05;100.00
7309;BME280;3695;53.330;9.876;2023-05-29T12:05:08;102834.63;;;17.38;100.00
7309;BME280;3695;53.330;9.876;2023-05-29T12:07:36;102849.25;;;18.03;100.00
7309;BME280;3695;53.330;9.876;2023-05-29T12:10:09;102838.03;;;18.43;100.00
7309;BME280;3695;53.330;9.876;2023-05-29T12:12:36;102841.28;;;17.82;100.00
7309;BME280;3695;53.330;9.876;2023-05-29T12:15:05;102836.44;;;18.29;100.00
7309;BME280;3695;53.330;9.876;2023-05-29T12:17:32;102847.72;;;18.52;100.00
7309;BME280;3695;53.330;9.876;2023-05-29T12:19:59;102836.63;;;17.89;100.00
7309;BME280;3695;53.330;9.876;2023-05-29T12:22:37;102835.06;;;18.51;100.00
7309;BME280;3695;53.330;9.876;2023-05-29T12:25:09;102831.91;;;18.41;100.00
7309;BME280;3695;53.330;9.876;2023-05-29T12:27:37;102825.31;;;18.55;100.00
7309;BME280;3695;53.330;9.876;2023-05-29T12:30:08;102836.47;;;18.60;100.00
7309;BME280;3695;53.330;9.876;2023-05-29T12:32:36;102826.53;;;18.59;100.00
7309;BME280;3695;53.330;9.876;2023-05-29T12:35:12;102819.00;;;17.58;100.00
7309;BME280;3695;53.330;9.876;2023-05-29T12:37:45;102820.50;;;18.44;100.00
7309;BME280;3695;53.330;9.876;2023-05-29T12:40:16;102827.81;;;18.88;100.00
7309;BME280;3695;53.330;9.876;2023-05-29T12:42:44;102817.66;;;18.88;100.00
7309;BME280;3695;53.330;9.876;2023-05-29T12:45:11;102814.03;;;19.38;100.00
7309;BME280;3695;53.330;9.876;2023-05-29T12:47:37;102809.66;;;19.12;100.00
7309;BME280;3695;53.330;9.876;2023-05-29T12:50:14;102812.16;;;18.88;100.00
7309;BME280;3695;53.330;9.876;2023-05-29T12:52:41;102816.44;;;18.84;100.00
7309;BME280;3695;53.330;9.876;2023-05-29T12:55:09;102812.00;;;20.06;100.00
7309;BME280;3695;53.330;9.876;2023-05-29T12:57:36;102815.44;;;20.32;100.00
7309;BME280;3695;53.330;9.876;2023-05-29T13:00:03;102814.91;;;19.75;100.00
7309;BME280;3695;53.330;9.876;2023-05-29T13:02:30;102809.94;;;20.02;100.00
7309;BME280;3695;53.330;9.876;2023-05-29T13:04:57;102797.63;;;20.34;100.00
7309;BME280;3695;53.330;9.876;2023-05-29T13:07:23;102797.00;;;19.29;100.00
7309;BME280;3695;53.330;9.876;2023-05-29T13:09:53;102798.34;;;19.63;100.00
7309;BME280;3695;53.330;9.876;2023-05-29T13:12:21;102794.69;;;19.26;100.00